sensor_id;sensor_type;location;lat;lon;timestamp;P1;durP1;ratioP1;P2;durP2;ratioP2
77362;SDS011;66428;47.322;9.432;2023-06-22T00:01:37;8.77;;;4.78;;
77362;SDS011;66428;47.322;9.432;2023-06-22T00:04:08;8.20;;;4.00;;
77362;SDS011;66428;47.322;9.432;2023-06-22T00:06:36;8.10;;;4.07;;
77362;SDS011;66428;47.322;9.432;2023-06-22T00:09:03;12.90;;;4.18;;
77362;SDS011;66428;47.322;9.432;2023-06-22T00:11:33;9.85;;;3.97;;
77362;SDS011;66428;47.322;9.432;2023-06-22T00:14:01;9.05;;;4.30;;
77362;SDS011;66428;47.322;9.432;2023-06-22T00:16:29;9.98;;;4.28;;
77362;SDS011;66428;47.322;9.432;2023-06-22T00:18:57;9.05;;;4.65;;
77362;SDS011;66428;47.322;9.432;2023-06-22T00:21:28;9.43;;;4.05;;
77362;SDS011;66428;47.322;9.432;2023-06-22T00:23:55;11.45;;;4.85;;
77362;SDS011;66428;47.322;9.432;2023-06-22T00:26:23;7.85;;;4.45;;
77362;SDS011;66428;47.322;9.432;2023-06-22T00:29:19;12.02;;;4.78;;
77362;SDS011;66428;47.322;9.432;2023-06-22T00:31:50;8.90;;;4.50;;
77362;SDS011;66428;47.322;9.432;2023-06-22T00:34:21;11.27;;;4.32;;
77362;SDS011;66428;47.322;9.432;2023-06-22T00:36:50;12.57;;;4.90;;
77362;SDS011;66428;47.322;9.432;2023-06-22T00:39:18;9.25;;;4.93;;
77362;SDS011;66428;47.322;9.432;2023-06-22T00:41:46;8.18;;;3.90;;
77362;SDS011;66428;47.322;9.432;2023-06-22T00:44:16;8.48;;;4.68;;
77362;SDS011;66428;47.322;9.432;2023-06-22T00:46:44;9.18;;;4.22;;
77362;SDS011;66428;47.322;9.432;2023-06-22T00:49:11;8.50;;;4.35;;
77362;SDS011;66428;47.322;9.432;2023-06-22T00:51:43;9.02;;;4.43;;
77362;SDS011;66428;47.322;9.432;2023-06-22T00:54:16;9.25;;;5.10;;
77362;SDS011;66428;47.322;9.432;2023-06-22T00:56:53;7.97;;;4.95;;
77362;SDS011;66428;47.322;9.432;2023-06-22T00:59:23;9.57;;;4.88;;
77362;SDS011;66428;47.322;9.432;2023-06-22T01:01:52;8.82;;;4.00;;
77362;SDS011;66428;47.322;9.432;2023-06-22T01:04:21;12.68;;;4.63;;
77362;SDS011;66428;47.322;9.432;2023-06-22T01:06:53;6.45;;;3.92;;
77362;SDS011;66428;47.322;9.432;2023-06-22T01:09:25;9.32;;;4.20;;
77362;SDS011;66428;47.322;9.432;2023-06-22T01:11:54;6.78;;;4.00;;
77362;SDS011;66428;47.322;9.432;2023-06-22T01:14:26;7.53;;;4.20;;
77362;SDS011;66428;47.322;9.432;2023-06-22T01:16:55;9.95;;;4.90;;
77362;SDS011;66428;47.322;9.432;2023-06-22T01:19:29;10.02;;;5.18;;
77362;SDS011;66428;47.322;9.432;2023-06-22T01:22:02;15.68;;;5.22;;
77362;SDS011;66428;47.322;9.432;2023-06-22T01:24:38;11.63;;;4.25;;
77362;SDS011;66428;47.322;9.432;2023-06-22T01:27:14;6.93;;;4.97;;
77362;SDS011;66428;47.322;9.432;2023-06-22T01:29:49;8.40;;;4.07;;
77362;SDS011;66428;47.322;9.432;2023-06-22T01:32:20;9.82;;;4.82;;
77362;SDS011;66428;47.322;9.432;2023-06-22T01:34:50;7.45;;;4.50;;
77362;SDS011;66428;47.322;9.432;2023-06-22T01:37:21;8.45;;;4.45;;
77362;SDS011;66428;47.322;9.432;2023-06-22T01:39:50;7.85;;;4.30;;
77362;SDS011;66428;47.322;9.432;2023-06-22T01:42:18;6.68;;;4.03;;
77362;SDS011;66428;47.322;9.432;2023-06-22T01:44:46;10.73;;;4.32;;
77362;SDS011;66428;47.322;9.432;2023-06-22T01:47:15;11.95;;;4.78;;
77362;SDS011;66428;47.322;9.432;2023-06-22T01:49:43;8.57;;;4.75;;
77362;SDS011;66428;47.322;9.432;2023-06-22T01:52:12;9.73;;;5.40;;
77362;SDS011;66428;47.322;9.432;2023-06-22T01:54:40;8.32;;;3.92;;
77362;SDS011;66428;47.322;9.432;2023-06-22T01:57:07;7.00;;;4.22;;
77362;SDS011;66428;47.322;9.432;2023-06-22T01:59:37;9.98;;;4.75;;
77362;SDS011;66428;47.322;9.432;2023-06-22T02:02:10;9.48;;;3.97;;
77362;SDS011;66428;47.322;9.432;2023-06-22T02:04:44;11.45;;;5.00;;
77362;SDS011;66428;47.322;9.432;2023-06-22T02:07:17;9.27;;;4.45;;
77362;SDS011;66428;47.322;9.432;2023-06-22T02:09:45;9.35;;;3.88;;
77362;SDS011;66428;47.322;9.432;2023-06-22T02:12:17;8.20;;;4.35;;
77362;SDS011;66428;47.322;9.432;2023-06-22T02:14:46;8.40;;;4.65;;
77362;SDS011;66428;47.322;9.432;2023-06-22T02:17:14;9.98;;;4.10;;
77362;SDS011;66428;47.322;9.432;2023-06-22T02:19:43;10.73;;;4.13;;
77362;SDS011;66428;47.322;9.432;2023-06-22T02:22:14;9.02;;;4.72;;
77362;SDS011;66428;47.322;9.432;2023-06-22T02:24:43;8.90;;;4.35;;
77362;SDS011;66428;47.322;9.432;2023-06-22T02:27:10;10.13;;;4.68;;
77362;SDS011;66428;47.322;9.432;2023-06-22T02:29:38;6.13;;;4.55;;
77362;SDS011;66428;47.322;9.432;2023-06-22T02:32:08;7.43;;;4.40;;
77362;SDS011;66428;47.322;9.432;2023-06-22T02:34:37;7.35;;;4.25;;
77362;SDS011;66428;47.322;9.432;2023-06-22T02:37:06;8.20;;;4.32;;
77362;SDS011;66428;47.322;9.432;2023-06-22T02:39:34;9.52;;;4.53;;
77362;SDS011;66428;47.322;9.432;2023-06-22T02:42:02;7.18;;;4.65;;
77362;SDS011;66428;47.322;9.432;2023-06-22T02:44:32;8.95;;;4.25;;
77362;SDS011;66428;47.322;9.432;2023-06-22T02:47:00;9.32;;;4.32;;
77362;SDS011;66428;47.322;9.432;2023-06-22T02:49:28;9.82;;;4.07;;
77362;SDS011;66428;47.322;9.432;2023-06-22T02:51:56;8.98;;;4.30;;
77362;SDS011;66428;47.322;9.432;2023-06-22T02:54:29;8.05;;;3.83;;
77362;SDS011;66428;47.322;9.432;2023-06-22T02:56:57;11.82;;;4.25;;
77362;SDS011;66428;47.322;9.432;2023-06-22T02:59:27;7.57;;;4.20;;
77362;SDS011;66428;47.322;9.432;2023-06-22T03:02:04;10.10;;;4.75;;
77362;SDS011;66428;47.322;9.432;2023-06-22T03:04:34;8.52;;;4.07;;
77362;SDS011;66428;47.322;9.432;2023-06-22T03:07:02;8.52;;;4.05;;
77362;SDS011;66428;47.322;9.432;2023-06-22T03:09:33;7.95;;;4.00;;
77362;SDS011;66428;47.322;9.432;2023-06-22T03:12:00;11.25;;;4.25;;
77362;SDS011;66428;47.322;9.432;2023-06-22T03:14:38;8.25;;;4.20;;
77362;SDS011;66428;47.322;9.432;2023-06-22T03:17:06;10.48;;;4.22;;
77362;SDS011;66428;47.322;9.432;2023-06-22T03:19:36;10.68;;;4.15;;
77362;SDS011;66428;47.322;9.432;2023-06-22T03:22:04;6.25;;;3.85;;
77362;SDS011;66428;47.322;9.432;2023-06-22T03:24:33;7.32;;;4.28;;
77362;SDS011;66428;47.322;9.432;2023-06-22T03:27:01;11.90;;;4.20;;
77362;SDS011;66428;47.322;9.432;2023-06-22T03:29:34;9.23;;;4.05;;
77362;SDS011;66428;47.322;9.432;2023-06-22T03:32:04;10.00;;;4.05;;
77362;SDS011;66428;47.322;9.432;2023-06-22T03:34:33;7.63;;;4.55;;
77362;SDS011;66428;47.322;9.432;2023-06-22T03:37:02;9.77;;;4.43;;
77362;SDS011;66428;47.322;9.432;2023-06-22T03:39:31;7.82;;;3.90;;
77362;SDS011;66428;47.322;9.432;2023-06-22T03:42:00;6.55;;;3.70;;
77362;SDS011;66428;47.322;9.432;2023-06-22T03:44:27;16.35;;;4.60;;
77362;SDS011;66428;47.322;9.432;2023-06-22T03:46:57;8.70;;;4.85;;
77362;SDS011;66428;47.322;9.432;2023-06-22T03:49:25;9.95;;;4.50;;
77362;SDS011;66428;47.322;9.432;2023-06-22T03:51:55;9.60;;;5.15;;
77362;SDS011;66428;47.322;9.432;2023-06-22T03:54:26;8.75;;;4.00;;
77362;SDS011;66428;47.322;9.432;2023-06-22T03:56:57;8.93;;;4.70;;
77362;SDS011;66428;47.322;9.432;2023-06-22T03:59:27;17.70;;;6.72;;
77362;SDS011;66428;47.322;9.432;2023-06-22T04:01:54;9.57;;;4.25;;
77362;SDS011;66428;47.322;9.432;2023-06-22T04:04:24;7.88;;;4.28;;
77362;SDS011;66428;47.322;9.432;2023-06-22T04:06:54;7.80;;;4.05;;
77362;SDS011;66428;47.322;9.432;2023-06-22T04:09:24;10.15;;;4.40;;
77362;SDS011;66428;47.322;9.432;2023-06-22T04:11:52;9.77;;;4.28;;
77362;SDS011;66428;47.322;9.432;2023-06-22T04:14:22;11.73;;;4.43;;
77362;SDS011;66428;47.322;9.432;2023-06-22T04:16:51;13.95;;;4.78;;
77362;SDS011;66428;47.322;9.432;2023-06-22T04:19:19;10.45;;;4.65;;
77362;SDS011;66428;47.322;9.432;2023-06-22T04:21:46;8.73;;;4.28;;
77362;SDS011;66428;47.322;9.432;2023-06-22T04:24:15;9.48;;;4.72;;
77362;SDS011;66428;47.322;9.432;2023-06-22T04:26:42;12.05;;;4.43;;
77362;SDS011;66428;47.322;9.432;2023-06-22T04:29:14;13.63;;;5.30;;
77362;SDS011;66428;47.322;9.432;2023-06-22T04:31:42;11.60;;;5.53;;
77362;SDS011;66428;47.322;9.432;2023-06-22T04:34:11;8.05;;;4.70;;
77362;SDS011;66428;47.322;9.432;2023-06-22T04:36:39;9.00;;;4.35;;
77362;SDS011;66428;47.322;9.432;2023-06-22T04:39:08;10.07;;;4.30;;
77362;SDS011;66428;47.322;9.432;2023-06-22T04:41:39;8.80;;;4.20;;
77362;SDS011;66428;47.322;9.432;2023-06-22T04:44:10;10.52;;;4.50;;
77362;SDS011;66428;47.322;9.432;2023-06-22T04:46:38;10.98;;;4.22;;
77362;SDS011;66428;47.322;9.432;2023-06-22T04:49:06;8.38;;;3.42;;
77362;SDS011;66428;47.322;9.432;2023-06-22T04:51:38;8.18;;;4.65;;
77362;SDS011;66428;47.322;9.432;2023-06-22T04:54:06;6.20;;;4.07;;
77362;SDS011;66428;47.322;9.432;2023-06-22T04:56:36;8.23;;;4.50;;
77362;SDS011;66428;47.322;9.432;2023-06-22T04:59:07;10.98;;;4.22;;
77362;SDS011;66428;47.322;9.432;2023-06-22T05:01:41;11.88;;;4.43;;
77362;SDS011;66428;47.322;9.432;2023-06-22T05:04:11;8.70;;;4.13;;
77362;SDS011;66428;47.322;9.432;2023-06-22T05:06:43;10.95;;;4.15;;
77362;SDS011;66428;47.322;9.432;2023-06-22T05:09:11;11.68;;;4.03;;
77362;SDS011;66428;47.322;9.432;2023-06-22T05:11:39;9.30;;;4.15;;
77362;SDS011;66428;47.322;9.432;2023-06-22T05:14:07;9.32;;;4.43;;
77362;SDS011;66428;47.322;9.432;2023-06-22T05:16:34;8.73;;;5.40;;
77362;SDS011;66428;47.322;9.432;2023-06-22T05:19:02;10.05;;;4.88;;
77362;SDS011;66428;47.322;9.432;2023-06-22T05:21:30;11.50;;;5.13;;
77362;SDS011;66428;47.322;9.432;2023-06-22T05:23:59;14.23;;;5.10;;
77362;SDS011;66428;47.322;9.432;2023-06-22T05:26:29;15.35;;;5.57;;
77362;SDS011;66428;47.322;9.432;2023-06-22T05:28:56;10.82;;;5.05;;
77362;SDS011;66428;47.322;9.432;2023-06-22T05:31:27;12.07;;;4.90;;
77362;SDS011;66428;47.322;9.432;2023-06-22T05:33:55;11.45;;;5.25;;
77362;SDS011;66428;47.322;9.432;2023-06-22T05:36:22;10.57;;;5.18;;
77362;SDS011;66428;47.322;9.432;2023-06-22T05:38:52;11.43;;;5.45;;
77362;SDS011;66428;47.322;9.432;2023-06-22T05:41:21;11.43;;;4.55;;
77362;SDS011;66428;47.322;9.432;2023-06-22T05:43:49;8.80;;;5.13;;
77362;SDS011;66428;47.322;9.432;2023-06-22T05:46:19;12.63;;;5.72;;
77362;SDS011;66428;47.322;9.432;2023-06-22T05:48:49;15.02;;;5.20;;
77362;SDS011;66428;47.322;9.432;2023-06-22T05:51:17;12.45;;;5.53;;
77362;SDS011;66428;47.322;9.432;2023-06-22T05:53:47;11.35;;;5.55;;
77362;SDS011;66428;47.322;9.432;2023-06-22T05:56:16;15.15;;;5.57;;
77362;SDS011;66428;47.322;9.432;2023-06-22T05:58:45;15.50;;;6.93;;
77362;SDS011;66428;47.322;9.432;2023-06-22T06:01:13;13.48;;;5.07;;
77362;SDS011;66428;47.322;9.432;2023-06-22T06:03:44;9.10;;;5.57;;
77362;SDS011;66428;47.322;9.432;2023-06-22T06:06:12;13.82;;;5.50;;
77362;SDS011;66428;47.322;9.432;2023-06-22T06:08:39;12.43;;;5.65;;
77362;SDS011;66428;47.322;9.432;2023-06-22T06:11:10;12.45;;;6.20;;
77362;SDS011;66428;47.322;9.432;2023-06-22T06:13:38;13.40;;;5.40;;
77362;SDS011;66428;47.322;9.432;2023-06-22T06:16:07;10.57;;;5.28;;
77362;SDS011;66428;47.322;9.432;2023-06-22T06:18:35;15.02;;;5.25;;
77362;SDS011;66428;47.322;9.432;2023-06-22T06:21:06;11.82;;;5.20;;
77362;SDS011;66428;47.322;9.432;2023-06-22T06:23:34;10.40;;;6.22;;
77362;SDS011;66428;47.322;9.432;2023-06-22T06:26:02;11.48;;;5.25;;
77362;SDS011;66428;47.322;9.432;2023-06-22T06:28:34;10.68;;;5.40;;
77362;SDS011;66428;47.322;9.432;2023-06-22T06:31:01;11.30;;;4.90;;
77362;SDS011;66428;47.322;9.432;2023-06-22T06:33:34;11.30;;;5.20;;
77362;SDS011;66428;47.322;9.432;2023-06-22T06:36:02;14.18;;;5.72;;
77362;SDS011;66428;47.322;9.432;2023-06-22T06:38:31;9.57;;;5.30;;
77362;SDS011;66428;47.322;9.432;2023-06-22T06:40:59;9.65;;;5.35;;
77362;SDS011;66428;47.322;9.432;2023-06-22T06:43:29;8.63;;;4.90;;
77362;SDS011;66428;47.322;9.432;2023-06-22T06:45:59;13.95;;;5.13;;
77362;SDS011;66428;47.322;9.432;2023-06-22T06:48:27;9.90;;;5.13;;
77362;SDS011;66428;47.322;9.432;2023-06-22T06:50:56;10.75;;;4.82;;
77362;SDS011;66428;47.322;9.432;2023-06-22T06:53:26;7.82;;;4.70;;
77362;SDS011;66428;47.322;9.432;2023-06-22T06:55:54;16.05;;;6.88;;
77362;SDS011;66428;47.322;9.432;2023-06-22T06:58:22;10.85;;;5.72;;
77362;SDS011;66428;47.322;9.432;2023-06-22T07:00:52;10.20;;;6.05;;
77362;SDS011;66428;47.322;9.432;2023-06-22T07:03:20;18.08;;;6.13;;
77362;SDS011;66428;47.322;9.432;2023-06-22T07:05:48;13.13;;;5.47;;
77362;SDS011;66428;47.322;9.432;2023-06-22T07:08:17;11.13;;;6.18;;
77362;SDS011;66428;47.322;9.432;2023-06-22T07:10:47;11.68;;;4.90;;
77362;SDS011;66428;47.322;9.432;2023-06-22T07:13:17;14.02;;;5.80;;
77362;SDS011;66428;47.322;9.432;2023-06-22T07:15:47;15.27;;;7.05;;
77362;SDS011;66428;47.322;9.432;2023-06-22T07:18:14;9.13;;;6.18;;
77362;SDS011;66428;47.322;9.432;2023-06-22T07:20:42;12.98;;;6.03;;
77362;SDS011;66428;47.322;9.432;2023-06-22T07:23:10;9.80;;;4.97;;
77362;SDS011;66428;47.322;9.432;2023-06-22T07:25:39;11.30;;;6.13;;
77362;SDS011;66428;47.322;9.432;2023-06-22T07:28:07;12.10;;;6.70;;
77362;SDS011;66428;47.322;9.432;2023-06-22T07:30:35;16.20;;;6.57;;
77362;SDS011;66428;47.322;9.432;2023-06-22T07:33:05;16.65;;;6.43;;
77362;SDS011;66428;47.322;9.432;2023-06-22T07:35:35;13.02;;;6.13;;
77362;SDS011;66428;47.322;9.432;2023-06-22T07:38:05;11.70;;;5.78;;
77362;SDS011;66428;47.322;9.432;2023-06-22T07:40:33;11.88;;;6.78;;
77362;SDS011;66428;47.322;9.432;2023-06-22T07:43:03;10.20;;;6.20;;
77362;SDS011;66428;47.322;9.432;2023-06-22T07:45:30;13.95;;;7.40;;
77362;SDS011;66428;47.322;9.432;2023-06-22T07:48:00;15.20;;;6.82;;
77362;SDS011;66428;47.322;9.432;2023-06-22T07:50:29;15.27;;;6.07;;
77362;SDS011;66428;47.322;9.432;2023-06-22T07:52:58;9.68;;;6.18;;
77362;SDS011;66428;47.322;9.432;2023-06-22T07:55:25;15.20;;;7.32;;
77362;SDS011;66428;47.322;9.432;2023-06-22T07:57:54;11.45;;;6.18;;
77362;SDS011;66428;47.322;9.432;2023-06-22T08:00:23;12.23;;;6.85;;
77362;SDS011;66428;47.322;9.432;2023-06-22T08:02:53;16.52;;;7.10;;
77362;SDS011;66428;47.322;9.432;2023-06-22T08:05:23;16.00;;;7.25;;
77362;SDS011;66428;47.322;9.432;2023-06-22T08:07:51;10.38;;;6.28;;
77362;SDS011;66428;47.322;9.432;2023-06-22T08:10:20;12.85;;;6.95;;
77362;SDS011;66428;47.322;9.432;2023-06-22T08:12:48;12.60;;;7.03;;
77362;SDS011;66428;47.322;9.432;2023-06-22T08:15:18;14.27;;;6.93;;
77362;SDS011;66428;47.322;9.432;2023-06-22T08:17:47;12.27;;;6.53;;
77362;SDS011;66428;47.322;9.432;2023-06-22T08:20:15;12.88;;;6.85;;
77362;SDS011;66428;47.322;9.432;2023-06-22T08:22:43;14.45;;;6.65;;
77362;SDS011;66428;47.322;9.432;2023-06-22T08:25:11;13.57;;;7.60;;
77362;SDS011;66428;47.322;9.432;2023-06-22T08:27:39;14.48;;;7.32;;
77362;SDS011;66428;47.322;9.432;2023-06-22T08:30:07;16.65;;;8.27;;
77362;SDS011;66428;47.322;9.432;2023-06-22T08:32:37;13.98;;;8.35;;
77362;SDS011;66428;47.322;9.432;2023-06-22T08:35:07;14.35;;;9.00;;
77362;SDS011;66428;47.322;9.432;2023-06-22T08:37:38;20.20;;;8.60;;
77362;SDS011;66428;47.322;9.432;2023-06-22T08:40:07;17.90;;;8.77;;
77362;SDS011;66428;47.322;9.432;2023-06-22T08:42:36;14.48;;;8.35;;
77362;SDS011;66428;47.322;9.432;2023-06-22T08:45:06;14.40;;;8.15;;
77362;SDS011;66428;47.322;9.432;2023-06-22T08:47:37;13.32;;;9.05;;
77362;SDS011;66428;47.322;9.432;2023-06-22T08:50:05;13.98;;;9.15;;
77362;SDS011;66428;47.322;9.432;2023-06-22T08:52:36;16.63;;;9.77;;
77362;SDS011;66428;47.322;9.432;2023-06-22T08:55:04;15.10;;;9.27;;
77362;SDS011;66428;47.322;9.432;2023-06-22T08:57:32;15.40;;;9.43;;
77362;SDS011;66428;47.322;9.432;2023-06-22T09:00:02;18.65;;;9.93;;
77362;SDS011;66428;47.322;9.432;2023-06-22T09:02:39;16.92;;;10.23;;
77362;SDS011;66428;47.322;9.432;2023-06-22T09:05:09;15.93;;;8.43;;
77362;SDS011;66428;47.322;9.432;2023-06-22T09:07:38;13.70;;;7.20;;
77362;SDS011;66428;47.322;9.432;2023-06-22T09:10:06;13.63;;;7.32;;
77362;SDS011;66428;47.322;9.432;2023-06-22T09:12:34;14.98;;;7.03;;
77362;SDS011;66428;47.322;9.432;2023-06-22T09:15:04;13.75;;;7.03;;
77362;SDS011;66428;47.322;9.432;2023-06-22T09:17:40;11.52;;;6.32;;
77362;SDS011;66428;47.322;9.432;2023-06-22T09:20:08;11.52;;;5.47;;
77362;SDS011;66428;47.322;9.432;2023-06-22T09:22:41;12.13;;;6.85;;
77362;SDS011;66428;47.322;9.432;2023-06-22T09:25:09;15.00;;;7.15;;
77362;SDS011;66428;47.322;9.432;2023-06-22T09:27:39;13.40;;;6.82;;
77362;SDS011;66428;47.322;9.432;2023-06-22T09:30:07;11.93;;;6.50;;
77362;SDS011;66428;47.322;9.432;2023-06-22T09:32:35;14.77;;;6.38;;
77362;SDS011;66428;47.322;9.432;2023-06-22T09:35:05;13.63;;;6.85;;
77362;SDS011;66428;47.322;9.432;2023-06-22T09:37:37;16.90;;;6.70;;
77362;SDS011;66428;47.322;9.432;2023-06-22T09:40:07;16.17;;;8.20;;
77362;SDS011;66428;47.322;9.432;2023-06-22T09:42:38;11.32;;;6.22;;
77362;SDS011;66428;47.322;9.432;2023-06-22T09:45:06;14.82;;;6.07;;
77362;SDS011;66428;47.322;9.432;2023-06-22T09:47:34;13.15;;;6.43;;
77362;SDS011;66428;47.322;9.432;2023-06-22T09:50:01;11.02;;;6.45;;
77362;SDS011;66428;47.322;9.432;2023-06-22T09:52:29;9.93;;;5.80;;
77362;SDS011;66428;47.322;9.432;2023-06-22T09:55:16;15.52;;;6.25;;
77362;SDS011;66428;47.322;9.432;2023-06-22T09:57:44;11.82;;;6.60;;
77362;SDS011;66428;47.322;9.432;2023-06-22T10:00:15;14.65;;;7.05;;
77362;SDS011;66428;47.322;9.432;2023-06-22T10:02:46;13.35;;;5.60;;
77362;SDS011;66428;47.322;9.432;2023-06-22T10:05:14;12.32;;;6.40;;
77362;SDS011;66428;47.322;9.432;2023-06-22T10:07:42;16.40;;;6.30;;
77362;SDS011;66428;47.322;9.432;2023-06-22T10:10:11;11.88;;;6.60;;
77362;SDS011;66428;47.322;9.432;2023-06-22T10:12:44;11.75;;;5.65;;
77362;SDS011;66428;47.322;9.432;2023-06-22T10:15:12;13.65;;;6.00;;
77362;SDS011;66428;47.322;9.432;2023-06-22T10:17:40;10.93;;;6.00;;
77362;SDS011;66428;47.322;9.432;2023-06-22T10:20:08;16.90;;;6.55;;
77362;SDS011;66428;47.322;9.432;2023-06-22T10:22:42;11.48;;;6.05;;
77362;SDS011;66428;47.322;9.432;2023-06-22T10:25:12;14.82;;;6.35;;
77362;SDS011;66428;47.322;9.432;2023-06-22T10:27:40;13.13;;;6.75;;
77362;SDS011;66428;47.322;9.432;2023-06-22T10:30:12;12.80;;;6.40;;
77362;SDS011;66428;47.322;9.432;2023-06-22T10:32:40;14.15;;;5.93;;
77362;SDS011;66428;47.322;9.432;2023-06-22T10:35:11;13.02;;;6.55;;
77362;SDS011;66428;47.322;9.432;2023-06-22T10:37:42;13.43;;;6.88;;
77362;SDS011;66428;47.322;9.432;2023-06-22T10:40:11;11.98;;;6.78;;
77362;SDS011;66428;47.322;9.432;2023-06-22T10:42:39;10.48;;;6.25;;
77362;SDS011;66428;47.322;9.432;2023-06-22T10:45:07;12.40;;;6.75;;
77362;SDS011;66428;47.322;9.432;2023-06-22T10:47:39;11.93;;;5.72;;
77362;SDS011;66428;47.322;9.432;2023-06-22T10:50:09;12.40;;;7.13;;
77362;SDS011;66428;47.322;9.432;2023-06-22T10:52:37;11.40;;;5.43;;
77362;SDS011;66428;47.322;9.432;2023-06-22T10:55:05;10.52;;;6.00;;
77362;SDS011;66428;47.322;9.432;2023-06-22T10:57:33;13.30;;;6.72;;
77362;SDS011;66428;47.322;9.432;2023-06-22T11:00:00;13.70;;;7.15;;
77362;SDS011;66428;47.322;9.432;2023-06-22T11:02:28;13.18;;;6.70;;
77362;SDS011;66428;47.322;9.432;2023-06-22T11:04:57;11.23;;;5.85;;
77362;SDS011;66428;47.322;9.432;2023-06-22T11:07:26;9.43;;;5.57;;
77362;SDS011;66428;47.322;9.432;2023-06-22T11:09:57;11.15;;;5.95;;
77362;SDS011;66428;47.322;9.432;2023-06-22T11:12:25;10.85;;;5.57;;
77362;SDS011;66428;47.322;9.432;2023-06-22T11:14:53;11.80;;;6.20;;
77362;SDS011;66428;47.322;9.432;2023-06-22T11:17:24;10.77;;;5.50;;
77362;SDS011;66428;47.322;9.432;2023-06-22T11:19:52;14.98;;;5.60;;
77362;SDS011;66428;47.322;9.432;2023-06-22T11:22:23;10.50;;;5.35;;
77362;SDS011;66428;47.322;9.432;2023-06-22T11:24:51;9.68;;;6.25;;
77362;SDS011;66428;47.322;9.432;2023-06-22T11:27:19;11.40;;;6.18;;
77362;SDS011;66428;47.322;9.432;2023-06-22T11:29:46;17.17;;;6.82;;
77362;SDS011;66428;47.322;9.432;2023-06-22T11:32:14;13.10;;;5.60;;
77362;SDS011;66428;47.322;9.432;2023-06-22T11:34:44;10.52;;;5.50;;
77362;SDS011;66428;47.322;9.432;2023-06-22T11:37:12;12.68;;;5.82;;
77362;SDS011;66428;47.322;9.432;2023-06-22T11:39:41;14.07;;;6.55;;
77362;SDS011;66428;47.322;9.432;2023-06-22T11:42:13;11.05;;;6.22;;
77362;SDS011;66428;47.322;9.432;2023-06-22T11:44:41;12.82;;;5.50;;
77362;SDS011;66428;47.322;9.432;2023-06-22T11:47:11;14.30;;;6.03;;
77362;SDS011;66428;47.322;9.432;2023-06-22T11:49:39;11.43;;;5.43;;
77362;SDS011;66428;47.322;9.432;2023-06-22T11:52:07;9.60;;;3.95;;
77362;SDS011;66428;47.322;9.432;2023-06-22T11:54:34;14.23;;;5.07;;
77362;SDS011;66428;47.322;9.432;2023-06-22T11:57:04;9.18;;;3.88;;
77362;SDS011;66428;47.322;9.432;2023-06-22T11:59:31;14.18;;;4.25;;
77362;SDS011;66428;47.322;9.432;2023-06-22T12:01:59;7.78;;;3.70;;
77362;SDS011;66428;47.322;9.432;2023-06-22T12:04:27;10.93;;;4.35;;
77362;SDS011;66428;47.322;9.432;2023-06-22T12:06:54;11.35;;;3.85;;
77362;SDS011;66428;47.322;9.432;2023-06-22T12:09:22;12.25;;;3.97;;
77362;SDS011;66428;47.322;9.432;2023-06-22T12:11:50;8.48;;;3.65;;
77362;SDS011;66428;47.322;9.432;2023-06-22T12:14:19;13.52;;;4.47;;
77362;SDS011;66428;47.322;9.432;2023-06-22T12:16:46;10.75;;;4.85;;
77362;SDS011;66428;47.322;9.432;2023-06-22T12:19:17;11.45;;;4.68;;
77362;SDS011;66428;47.322;9.432;2023-06-22T12:21:45;8.95;;;4.55;;
77362;SDS011;66428;47.322;9.432;2023-06-22T12:24:13;10.95;;;4.30;;
77362;SDS011;66428;47.322;9.432;2023-06-22T12:26:41;14.50;;;5.00;;
77362;SDS011;66428;47.322;9.432;2023-06-22T12:29:09;11.85;;;4.75;;
77362;SDS011;66428;47.322;9.432;2023-06-22T12:31:38;12.35;;;4.75;;
77362;SDS011;66428;47.322;9.432;2023-06-22T12:34:08;8.07;;;4.38;;
77362;SDS011;66428;47.322;9.432;2023-06-22T12:36:36;11.45;;;4.53;;
77362;SDS011;66428;47.322;9.432;2023-06-22T12:39:04;10.77;;;4.72;;
77362;SDS011;66428;47.322;9.432;2023-06-22T12:41:31;11.82;;;5.38;;
77362;SDS011;66428;47.322;9.432;2023-06-22T12:43:59;12.05;;;4.70;;
77362;SDS011;66428;47.322;9.432;2023-06-22T12:46:27;15.02;;;4.57;;
77362;SDS011;66428;47.322;9.432;2023-06-22T12:48:58;9.52;;;4.43;;
77362;SDS011;66428;47.322;9.432;2023-06-22T12:51:27;12.77;;;5.28;;
77362;SDS011;66428;47.322;9.432;2023-06-22T12:53:57;10.02;;;4.75;;
77362;SDS011;66428;47.322;9.432;2023-06-22T12:56:25;8.77;;;4.15;;
77362;SDS011;66428;47.322;9.432;2023-06-22T12:58:53;9.95;;;4.15;;
77362;SDS011;66428;47.322;9.432;2023-06-22T13:01:22;10.07;;;4.75;;
77362;SDS011;66428;47.322;9.432;2023-06-22T13:03:51;16.05;;;5.90;;
77362;SDS011;66428;47.322;9.432;2023-06-22T13:06:20;11.23;;;4.38;;
77362;SDS011;66428;47.322;9.432;2023-06-22T13:08:47;14.63;;;4.82;;
77362;SDS011;66428;47.322;9.432;2023-06-22T13:11:18;12.10;;;4.72;;
77362;SDS011;66428;47.322;9.432;2023-06-22T13:13:46;9.63;;;4.53;;
77362;SDS011;66428;47.322;9.432;2023-06-22T13:16:13;15.20;;;4.20;;
77362;SDS011;66428;47.322;9.432;2023-06-22T13:18:41;15.70;;;5.53;;
77362;SDS011;66428;47.322;9.432;2023-06-22T13:21:09;13.93;;;4.63;;
77362;SDS011;66428;47.322;9.432;2023-06-22T13:23:38;13.52;;;5.05;;
77362;SDS011;66428;47.322;9.432;2023-06-22T13:26:05;10.73;;;4.25;;
77362;SDS011;66428;47.322;9.432;2023-06-22T13:28:35;16.75;;;5.55;;
77362;SDS011;66428;47.322;9.432;2023-06-22T13:31:03;14.65;;;5.15;;
77362;SDS011;66428;47.322;9.432;2023-06-22T13:33:33;14.18;;;5.00;;
77362;SDS011;66428;47.322;9.432;2023-06-22T13:36:01;13.45;;;5.45;;
77362;SDS011;66428;47.322;9.432;2023-06-22T13:38:29;10.82;;;4.50;;
77362;SDS011;66428;47.322;9.432;2023-06-22T13:40:59;14.60;;;4.72;;
77362;SDS011;66428;47.322;9.432;2023-06-22T13:43:27;13.60;;;4.97;;
77362;SDS011;66428;47.322;9.432;2023-06-22T13:45:57;13.75;;;5.78;;
77362;SDS011;66428;47.322;9.432;2023-06-22T13:48:27;10.27;;;5.15;;
77362;SDS011;66428;47.322;9.432;2023-06-22T13:50:55;18.02;;;6.00;;
77362;SDS011;66428;47.322;9.432;2023-06-22T13:53:25;14.45;;;5.97;;
77362;SDS011;66428;47.322;9.432;2023-06-22T13:55:53;13.63;;;5.50;;
77362;SDS011;66428;47.322;9.432;2023-06-22T13:58:24;11.82;;;5.05;;
77362;SDS011;66428;47.322;9.432;2023-06-22T14:00:52;12.63;;;4.53;;
77362;SDS011;66428;47.322;9.432;2023-06-22T14:03:22;12.00;;;4.88;;
77362;SDS011;66428;47.322;9.432;2023-06-22T14:05:50;10.93;;;4.18;;
77362;SDS011;66428;47.322;9.432;2023-06-22T14:08:20;10.48;;;4.07;;
77362;SDS011;66428;47.322;9.432;2023-06-22T14:11:06;10.98;;;4.43;;
77362;SDS011;66428;47.322;9.432;2023-06-22T14:13:37;8.90;;;4.25;;
77362;SDS011;66428;47.322;9.432;2023-06-22T14:16:07;14.40;;;4.45;;
77362;SDS011;66428;47.322;9.432;2023-06-22T14:18:35;11.55;;;4.43;;
77362;SDS011;66428;47.322;9.432;2023-06-22T14:21:02;8.57;;;3.97;;
77362;SDS011;66428;47.322;9.432;2023-06-22T14:23:30;13.73;;;4.68;;
77362;SDS011;66428;47.322;9.432;2023-06-22T14:25:58;11.63;;;4.38;;
77362;SDS011;66428;47.322;9.432;2023-06-22T14:28:28;14.75;;;4.40;;
77362;SDS011;66428;47.322;9.432;2023-06-22T14:30:57;15.65;;;4.70;;
77362;SDS011;66428;47.322;9.432;2023-06-22T14:33:25;12.65;;;4.93;;
77362;SDS011;66428;47.322;9.432;2023-06-22T14:35:55;20.42;;;6.97;;
77362;SDS011;66428;47.322;9.432;2023-06-22T14:38:22;12.13;;;5.43;;
77362;SDS011;66428;47.322;9.432;2023-06-22T14:40:50;11.57;;;5.38;;
77362;SDS011;66428;47.322;9.432;2023-06-22T14:43:38;12.07;;;5.43;;
77362;SDS011;66428;47.322;9.432;2023-06-22T14:46:07;12.07;;;5.22;;
77362;SDS011;66428;47.322;9.432;2023-06-22T14:48:35;13.15;;;5.63;;
77362;SDS011;66428;47.322;9.432;2023-06-22T14:51:03;12.15;;;6.50;;